createdAt,value
2022-09-04T00:02:28.025Z,98231.00
2022-09-04T00:05:13.338Z,98227.53
2022-09-04T00:07:51.888Z,98233.63
2022-09-04T00:10:40.457Z,98231.75
2022-09-04T00:13:11.538Z,98229.75
2022-09-04T00:15:39.976Z,98235.22
2022-09-04T00:18:08.308Z,98241.66
2022-09-04T00:20:37.507Z,98240.63
2022-09-04T00:23:25.340Z,98239.75
2022-09-04T00:25:59.092Z,98238.16
2022-09-04T00:28:25.549Z,98238.47
2022-09-04T00:31:04.477Z,98237.25
2022-09-04T00:33:43.150Z,98232.44
2022-09-04T00:36:09.531Z,98236.03
2022-09-04T00:38:46.140Z,98235.22
2022-09-04T00:41:18.849Z,98243.41
2022-09-04T00:44:04.076Z,98240.22
2022-09-04T00:46:49.308Z,98248.78
2022-09-04T00:49:31.028Z,98242.75
2022-09-04T00:52:02.502Z,98248.50
2022-09-04T00:54:41.188Z,98248.13
2022-09-04T00:57:10.994Z,98254.03
2022-09-04T00:59:56.304Z,98250.56
2022-09-04T01:02:38.920Z,98249.00
2022-09-04T01:05:19.593Z,98255.06
2022-09-04T01:07:58.626Z,98259.22
2022-09-04T01:10:28.007Z,98262.53
2022-09-04T01:13:00.270Z,98261.84
2022-09-04T01:15:29.837Z,98256.84
2022-09-04T01:18:04.378Z,98257.81
2022-09-04T01:21:00.048Z,98258.00
2022-09-04T01:23:49.747Z,98260.56
2022-09-04T01:26:27.975Z,98262.09
2022-09-04T01:29:20.737Z,98265.88
2022-09-04T01:32:05.278Z,98267.81
2022-09-04T01:34:38.336Z,98270.19
2022-09-04T01:37:12.967Z,98262.03
2022-09-04T01:39:39.377Z,98257.25
2022-09-04T01:42:11.931Z,98262.03
2022-09-04T01:44:38.288Z,98261.28
2022-09-04T01:47:19.227Z,98260.31
2022-09-04T01:49:47.978Z,98257.91
2022-09-04T01:52:18.613Z,98255.41
2022-09-04T01:54:44.924Z,98255.59
2022-09-04T01:57:14.290Z,98256.06
2022-09-04T01:59:40.617Z,98258.69
2022-09-04T02:02:13.412Z,98256.84
2022-09-04T02:04:45.640Z,98257.47
2022-09-04T02:07:25.563Z,98257.47
2022-09-04T02:10:07.239Z,98255.59
2022-09-04T02:12:52.363Z,98257.78
2022-09-04T02:15:18.682Z,98259.31
2022-09-04T02:17:51.093Z,98252.38
2022-09-04T02:20:23.685Z,98258.84
2022-09-04T02:23:04.976Z,98256.19
2022-09-04T02:25:43.444Z,98262.56
2022-09-04T02:28:09.741Z,98262.94
2022-09-04T02:30:44.304Z,98270.00
2022-09-04T02:33:15.173Z,98262.28
2022-09-04T02:35:56.692Z,98268.53
2022-09-04T02:38:26.093Z,98265.34
2022-09-04T02:40:59.035Z,98266.88
2022-09-04T02:43:35.586Z,98255.78
2022-09-04T02:46:07.617Z,98263.28
2022-09-04T02:48:52.794Z,98263.88
2022-09-04T02:51:24.988Z,98260.44
2022-09-04T02:53:54.927Z,98269.84
2022-09-04T02:56:26.434Z,98278.19
2022-09-04T02:59:11.904Z,98277.81
2022-09-04T03:01:52.554Z,98274.38
2022-09-04T03:04:24.530Z,98276.44
2022-09-04T03:06:52.047Z,98277.13
2022-09-04T03:09:30.927Z,98275.75
2022-09-04T03:12:00.986Z,98279.25
2022-09-04T03:14:34.357Z,98278.06
2022-09-04T03:17:06.870Z,98275.69
2022-09-04T03:19:42.402Z,98272.97
2022-09-04T03:22:23.137Z,98276.69
2022-09-04T03:25:08.359Z,98274.25
2022-09-04T03:27:34.730Z,98280.41
2022-09-04T03:30:01.374Z,98282.38
2022-09-04T03:32:43.061Z,98278.84
2022-09-04T03:35:10.631Z,98280.66
2022-09-04T03:37:37.118Z,98278.13
2022-09-04T03:40:18.577Z,98279.97
2022-09-04T03:42:50.387Z,98290.34
2022-09-04T03:45:25.908Z,98299.81
2022-09-04T03:48:12.588Z,98299.50
2022-09-04T03:50:57.035Z,98297.50
2022-09-04T03:53:29.355Z,98303.47
2022-09-04T03:56:06.121Z,98311.78
2022-09-04T03:58:36.969Z,98304.91
2022-09-04T04:01:06.905Z,98310.06
2022-09-04T04:03:52.195Z,98309.56
2022-09-04T04:06:23.272Z,98306.63
2022-09-04T04:08:56.609Z,98308.81
2022-09-04T04:11:24.162Z,98306.81
2022-09-04T04:13:50.492Z,98302.69
2022-09-04T04:16:26.183Z,98306.09
2022-09-04T04:19:30.962Z,98298.59
2022-09-04T04:22:15.145Z,98313.50
2022-09-04T04:24:54.729Z,98301.53
2022-09-04T04:27:40.094Z,98304.19
2022-09-04T04:30:07.451Z,98316.59
2022-09-04T04:32:44.421Z,98310.78
2022-09-04T04:35:17.080Z,98315.41
2022-09-04T04:38:02.139Z,98315.03
2022-09-04T04:40:37.569Z,98316.72
2022-09-04T04:43:13.970Z,98316.72
2022-09-04T04:45:59.103Z,98320.16
2022-09-04T04:48:25.537Z,98326.84
2022-09-04T04:50:59.185Z,98331.34
2022-09-04T04:53:35.489Z,98331.34
2022-09-04T04:56:20.756Z,98336.53
2022-09-04T04:58:50.966Z,98335.81
2022-09-04T05:01:25.508Z,98334.69
2022-09-04T05:03:54.999Z,98339.25
2022-09-04T05:06:25.777Z,98346.06
2022-09-04T05:09:03.021Z,98348.19
2022-09-04T05:11:32.402Z,98349.44
2022-09-04T05:13:58.706Z,98355.53
2022-09-04T05:16:31.163Z,98367.94
2022-09-04T05:18:59.546Z,98371.34
2022-09-04T05:21:31.092Z,98371.75
2022-09-04T05:24:10.979Z,98383.84
2022-09-04T05:26:52.738Z,98381.16
2022-09-04T05:29:32.400Z,98383.97
2022-09-04T05:32:19.310Z,98376.09
2022-09-04T05:34:49.052Z,98388.19
2022-09-04T05:37:20.831Z,98385.97
2022-09-04T05:39:59.551Z,98394.84
2022-09-04T05:42:32.084Z,98396.94
2022-09-04T05:45:05.685Z,98398.53
2022-09-04T05:47:34.868Z,98398.97
2022-09-04T05:50:08.287Z,98407.34
2022-09-04T05:52:46.764Z,98409.41
2022-09-04T05:55:22.266Z,98405.91
2022-09-04T05:57:48.554Z,98415.13
2022-09-04T06:00:16.199Z,98416.03
2022-09-04T06:02:48.791Z,98415.41
2022-09-04T06:05:21.209Z,98420.38
2022-09-04T06:07:47.495Z,98408.41
2022-09-04T06:10:20.733Z,98417.78
2022-09-04T06:13:01.089Z,98421.91
2022-09-04T06:15:31.276Z,98433.94
2022-09-04T06:18:10.038Z,98434.34
2022-09-04T06:20:45.908Z,98428.72
2022-09-04T06:23:20.765Z,98435.09
2022-09-04T06:26:06.309Z,98442.34
2022-09-04T06:28:35.455Z,98439.25
2022-09-04T06:31:11.130Z,98442.56
2022-09-04T06:33:56.414Z,98435.41
2022-09-04T06:36:38.820Z,98445.41
2022-09-04T06:39:11.451Z,98440.59
2022-09-04T06:41:43.777Z,98437.84
2022-09-04T06:44:19.248Z,98438.78
2022-09-04T06:46:45.621Z,98450.91
2022-09-04T06:49:15.013Z,98450.06
2022-09-04T06:51:53.497Z,98452.88
2022-09-04T06:54:43.142Z,98443.66
2022-09-04T06:57:19.893Z,98448.50
2022-09-04T06:59:55.286Z,98453.78
2022-09-04T07:02:28.798Z,98447.00
2022-09-04T07:05:15.532Z,98456.31
2022-09-04T07:07:48.059Z,98458.28
2022-09-04T07:10:21.677Z,98444.72
2022-09-04T07:13:14.372Z,98447.94
2022-09-04T07:15:46.457Z,98454.03
2022-09-04T07:18:12.909Z,98458.06
2022-09-04T07:21:05.778Z,98463.31
2022-09-04T07:23:52.402Z,98468.50
2022-09-04T07:26:21.804Z,98475.75
2022-09-04T07:28:51.205Z,98481.75
2022-09-04T07:31:53.559Z,98480.97
2022-09-04T07:34:25.157Z,98489.41
2022-09-04T07:37:04.237Z,98485.78
2022-09-04T07:39:44.351Z,98484.97
2022-09-04T07:42:16.900Z,98482.47
2022-09-04T07:44:54.447Z,98500.88
2022-09-04T07:47:31.263Z,98499.25
2022-09-04T07:50:03.852Z,98504.06
2022-09-04T07:52:30.730Z,98509.59
2022-09-04T07:55:07.437Z,98506.41
2022-09-04T07:57:52.721Z,98504.38
2022-09-04T08:00:21.043Z,98510.34
2022-09-04T08:03:08.064Z,98522.47
2022-09-04T08:05:36.872Z,98519.84
2022-09-04T08:08:15.629Z,98526.91
2022-09-04T08:10:51.179Z,98531.72
2022-09-04T08:13:56.410Z,98525.13
2022-09-04T08:16:23.010Z,98537.84
2022-09-04T08:19:08.548Z,98540.44
2022-09-04T08:21:39.283Z,98540.28
2022-09-04T08:24:15.982Z,98549.94
2022-09-04T08:26:54.501Z,98552.16
2022-09-04T08:29:23.910Z,98547.19
2022-09-04T08:31:59.087Z,98547.81
2022-09-04T08:34:40.687Z,98549.56
2022-09-04T08:37:26.354Z,98551.88
2022-09-04T08:39:58.633Z,98546.19
2022-09-04T08:42:31.875Z,98555.81
2022-09-04T08:45:04.521Z,98555.16
2022-09-04T08:47:51.760Z,98553.16
2022-09-04T08:50:19.292Z,98555.06
2022-09-04T08:52:45.583Z,98555.38
2022-09-04T08:55:43.144Z,98567.09
2022-09-04T08:58:09.603Z,98568.75
2022-09-04T09:00:55.643Z,98567.59
2022-09-04T09:03:31.211Z,98571.28
2022-09-04T09:05:57.605Z,98571.41
2022-09-04T09:08:33.189Z,98563.81
2022-09-04T09:11:16.100Z,98571.66
2022-09-04T09:13:46.572Z,98567.31
2022-09-04T09:16:28.256Z,98570.59
2022-09-04T09:19:13.458Z,98566.41
2022-09-04T09:21:59.049Z,98573.53
2022-09-04T09:24:34.753Z,98561.97
2022-09-04T09:27:20.317Z,98570.63
2022-09-04T09:30:07.353Z,98568.63
2022-09-04T09:32:52.173Z,98570.28
2022-09-04T09:35:33.847Z,98566.00
2022-09-04T09:38:04.662Z,98568.13
2022-09-04T09:40:51.419Z,98577.22
2022-09-04T09:43:46.901Z,98564.63
2022-09-04T09:46:19.295Z,98570.41
2022-09-04T09:49:04.632Z,98575.38
2022-09-04T09:51:59.866Z,98572.63
2022-09-04T09:54:37.929Z,98565.16
2022-09-04T09:57:33.393Z,98575.53
2022-09-04T10:00:09.606Z,98575.53
2022-09-04T10:02:54.841Z,98566.53
2022-09-04T10:05:40.582Z,98564.91
2022-09-04T10:08:07.032Z,98565.00
2022-09-04T10:10:55.584Z,98549.22
2022-09-04T10:13:25.053Z,98558.34
2022-09-04T10:15:54.229Z,98561.72
2022-09-04T10:18:20.575Z,98558.63
2022-09-04T10:20:55.443Z,98564.06
2022-09-04T10:23:25.718Z,98552.69
2022-09-04T10:26:10.696Z,98553.34
2022-09-04T10:28:59.537Z,98556.34
2022-09-04T10:31:44.802Z,98562.75
2022-09-04T10:34:29.966Z,98559.28
2022-09-04T10:37:04.129Z,98569.91
2022-09-04T10:39:54.235Z,98571.09
2022-09-04T10:42:26.578Z,98577.31
2022-09-04T10:45:11.719Z,98572.69
2022-09-04T10:47:47.415Z,98570.84
2022-09-04T10:50:20.557Z,98573.34
2022-09-04T10:52:48.501Z,98579.50
2022-09-04T10:55:14.845Z,98575.38
2022-09-04T10:57:41.184Z,98578.28
2022-09-04T11:00:07.921Z,98577.28
2022-09-04T11:02:53.291Z,98580.44
2022-09-04T11:05:32.222Z,98572.53
2022-09-04T11:08:12.930Z,98570.38
2022-09-04T11:10:40.301Z,98569.88
2022-09-04T11:13:25.997Z,98564.16
2022-09-04T11:15:56.011Z,98566.09
2022-09-04T11:18:28.445Z,98571.72
2022-09-04T11:21:19.167Z,98573.31
2022-09-04T11:24:07.802Z,98568.88
2022-09-04T11:26:47.340Z,98562.09
2022-09-04T11:29:32.017Z,98566.44
2022-09-04T11:32:12.086Z,98569.47
2022-09-04T11:34:57.391Z,98569.44
2022-09-04T11:37:43.429Z,98586.25
2022-09-04T11:40:09.829Z,98568.63
2022-09-04T11:43:02.657Z,98562.81
2022-09-04T11:45:35.049Z,98563.00
2022-09-04T11:48:09.590Z,98564.78
2022-09-04T11:51:01.485Z,98559.72
2022-09-04T11:53:46.738Z,98564.22
2022-09-04T11:56:16.069Z,98565.06
2022-09-04T11:59:01.362Z,98564.53
2022-09-04T12:01:27.699Z,98565.97
2022-09-04T12:04:14.643Z,98556.97
2022-09-04T12:07:00.086Z,98559.94
2022-09-04T12:09:36.066Z,98561.56
2022-09-04T12:12:22.513Z,98560.44
2022-09-04T12:15:07.501Z,98564.88
2022-09-04T12:17:44.504Z,98560.06
2022-09-04T12:20:29.784Z,98567.50
2022-09-04T12:22:56.154Z,98569.09
2022-09-04T12:25:49.675Z,98567.72
2022-09-04T12:28:54.417Z,98579.16
2022-09-04T12:31:20.821Z,98569.28
2022-09-04T12:33:56.815Z,98574.25
2022-09-04T12:36:42.226Z,98575.59
2022-09-04T12:39:34.337Z,98577.44
2022-09-04T12:42:19.487Z,98583.56
2022-09-04T12:44:52.064Z,98572.41
2022-09-04T12:47:21.789Z,98577.00
2022-09-04T12:50:06.980Z,98573.09
2022-09-04T12:52:36.500Z,98574.97
2022-09-04T12:55:41.657Z,98576.41
2022-09-04T12:58:21.257Z,98573.66
2022-09-04T13:00:56.856Z,98585.31
2022-09-04T13:03:28.051Z,98585.25
2022-09-04T13:06:04.295Z,98589.16
2022-09-04T13:08:47.053Z,98584.81
2022-09-04T13:11:22.697Z,98586.56
2022-09-04T13:13:56.649Z,98589.00
2022-09-04T13:16:32.450Z,98593.69
2022-09-04T13:19:09.710Z,98592.09
2022-09-04T13:21:44.392Z,98593.34
2022-09-04T13:24:19.713Z,98596.97
2022-09-04T13:27:00.697Z,98600.47
2022-09-04T13:29:28.115Z,98597.19
2022-09-04T13:31:54.540Z,98596.69
2022-09-04T13:34:20.864Z,98591.72
2022-09-04T13:36:57.252Z,98598.41
2022-09-04T13:39:39.093Z,98597.50
2022-09-04T13:42:11.503Z,98600.53
2022-09-04T13:44:58.168Z,98603.06
2022-09-04T13:47:32.724Z,98599.94
2022-09-04T13:50:08.364Z,98588.97
2022-09-04T13:52:45.677Z,98594.53
2022-09-04T13:55:17.962Z,98593.06
2022-09-04T13:57:57.325Z,98603.97
2022-09-04T14:00:24.514Z,98602.09
2022-09-04T14:02:58.699Z,98602.03
2022-09-04T14:05:25.656Z,98599.53
2022-09-04T14:07:57.527Z,98606.59
2022-09-04T14:10:27.454Z,98606.38
2022-09-04T14:13:04.396Z,98597.94
2022-09-04T14:15:33.742Z,98599.16
2022-09-04T14:18:08.181Z,98605.31
2022-09-04T14:21:02.462Z,98606.44
2022-09-04T14:23:29.802Z,98592.44
2022-09-04T14:25:57.210Z,98591.94
2022-09-04T14:28:35.374Z,98594.00
2022-09-04T14:31:11.132Z,98590.72
2022-09-04T14:33:49.988Z,98593.34
2022-09-04T14:36:21.657Z,98594.50
2022-09-04T14:38:54.417Z,98603.94
2022-09-04T14:41:20.967Z,98599.19
2022-09-04T14:44:01.295Z,98599.63
2022-09-04T14:46:39.303Z,98594.16
2022-09-04T14:49:06.499Z,98590.28
2022-09-04T14:51:35.088Z,98587.63
2022-09-04T14:54:01.946Z,98592.81
2022-09-04T14:56:31.443Z,98592.00
2022-09-04T14:59:02.500Z,98589.50
2022-09-04T15:01:29.881Z,98588.13
2022-09-04T15:04:17.492Z,98587.81
2022-09-04T15:07:07.775Z,98588.69
2022-09-04T15:09:36.138Z,98590.66
2022-09-04T15:12:25.945Z,98588.13
2022-09-04T15:14:54.520Z,98587.91
2022-09-04T15:17:26.292Z,98583.63
2022-09-04T15:19:55.037Z,98588.88
2022-09-04T15:22:26.342Z,98580.69
2022-09-04T15:24:58.434Z,98586.91
2022-09-04T15:27:32.874Z,98594.84
2022-09-04T15:30:03.440Z,98588.94
2022-09-04T15:32:36.827Z,98588.69
2022-09-04T15:35:23.231Z,98594.16
2022-09-04T15:37:50.415Z,98597.47
2022-09-04T15:40:31.981Z,98592.78
2022-09-04T15:43:03.865Z,98592.84
2022-09-04T15:45:36.376Z,98593.31
2022-09-04T15:48:06.107Z,98592.44
2022-09-04T15:50:36.654Z,98596.38
2022-09-04T15:53:20.678Z,98592.28
2022-09-04T15:55:54.385Z,98595.84
2022-09-04T15:58:21.099Z,98593.53
2022-09-04T16:01:16.845Z,98591.66
2022-09-04T16:04:04.907Z,98594.88
2022-09-04T16:06:54.732Z,98600.13
2022-09-04T16:09:30.066Z,98594.81
2022-09-04T16:11:59.889Z,98584.31
2022-09-04T16:14:30.096Z,98587.81
2022-09-04T16:17:07.113Z,98590.56
2022-09-04T16:19:42.441Z,98585.97
2022-09-04T16:22:18.520Z,98584.22
2022-09-04T16:24:47.023Z,98590.34
2022-09-04T16:27:15.360Z,98594.41
2022-09-04T16:29:53.514Z,98591.50
2022-09-04T16:32:22.360Z,98595.13
2022-09-04T16:34:56.794Z,98598.06
2022-09-04T16:37:28.523Z,98598.50
2022-09-04T16:40:01.014Z,98597.97
2022-09-04T16:42:43.919Z,98593.69
2022-09-04T16:45:17.056Z,98592.53
2022-09-04T16:47:44.128Z,98596.97
2022-09-04T16:50:28.987Z,98596.66
2022-09-04T16:52:58.860Z,98594.94
2022-09-04T16:55:52.369Z,98597.63
2022-09-04T16:58:20.158Z,98600.16
2022-09-04T17:01:14.339Z,98602.69
2022-09-04T17:03:43.276Z,98600.25
2022-09-04T17:06:28.622Z,98611.03
2022-09-04T17:09:08.539Z,98601.91
2022-09-04T17:11:45.430Z,98606.41
2022-09-04T17:14:22.724Z,98601.34
2022-09-04T17:16:57.220Z,98601.97
2022-09-04T17:19:23.675Z,98611.38
2022-09-04T17:28:58.137Z,98608.59
2022-09-04T17:29:07.873Z,98598.56
2022-09-04T17:29:11.313Z,98608.38
2022-09-04T17:30:50.370Z,98609.31
2022-09-04T17:35:40.270Z,98603.66
2022-09-04T17:40:36.550Z,98600.84
2022-09-04T17:40:49.875Z,98607.00
2022-09-04T17:42:09.515Z,98611.16
2022-09-04T17:44:46.025Z,98608.88
2022-09-04T17:47:15.356Z,98615.06
2022-09-04T17:49:44.023Z,98612.13
2022-09-04T17:52:11.812Z,98614.50
2022-09-04T17:54:40.363Z,98618.56
2022-09-04T17:57:18.925Z,98616.91
2022-09-04T17:59:49.164Z,98613.59
2022-09-04T18:02:22.841Z,98621.91
2022-09-04T18:05:13.530Z,98619.63
2022-09-04T18:08:08.037Z,98618.84
2022-09-04T18:10:36.988Z,98624.28
2022-09-04T18:13:30.395Z,98622.09
2022-09-04T18:16:19.598Z,98628.34
2022-09-04T18:18:52.901Z,98636.84
2022-09-04T18:21:24.132Z,98644.75
2022-09-04T18:23:52.686Z,98640.34
2022-09-04T18:26:40.578Z,98633.69
2022-09-04T18:30:55.389Z,98643.97
2022-09-04T18:37:10.498Z,98638.81
2022-09-04T18:37:19.201Z,98645.88
2022-09-04T18:38:03.463Z,98654.31
2022-09-04T18:42:10.648Z,98647.44
2022-09-04T18:50:22.580Z,98662.06
2022-09-04T18:50:32.229Z,98650.03
2022-09-04T18:50:50.778Z,98654.13
2022-09-04T18:51:59.605Z,98659.59
2022-09-04T18:54:31.142Z,98656.38
2022-09-04T18:57:00.790Z,98664.38
2022-09-04T18:59:36.290Z,98669.97
2022-09-04T19:02:04.694Z,98664.41
2022-09-04T19:04:35.715Z,98673.16
2022-09-04T19:07:07.044Z,98668.31
2022-09-04T19:09:55.743Z,98672.03
2022-09-04T19:12:23.574Z,98675.28
2022-09-04T19:14:49.958Z,98667.84
2022-09-04T19:17:21.058Z,98666.94
2022-09-04T19:19:49.861Z,98661.03
2022-09-04T19:22:17.965Z,98664.28
2022-09-04T19:24:49.075Z,98659.47
2022-09-04T19:27:25.100Z,98663.56
2022-09-04T19:30:18.942Z,98667.59
2022-09-04T19:32:59.641Z,98662.03
2022-09-04T19:35:30.034Z,98660.84
2022-09-04T19:41:46.093Z,98664.06
2022-09-04T19:45:57.876Z,98673.00
2022-09-04T19:46:14.823Z,98670.19
2022-09-04T19:46:47.208Z,98679.44
2022-09-04T19:51:30.892Z,98681.06
2022-09-04T19:53:31.573Z,98677.84
2022-09-04T19:55:24.384Z,98676.22
2022-09-04T19:57:52.229Z,98677.03
2022-09-04T20:00:42.111Z,98673.81
2022-09-04T20:03:05.499Z,98667.81
2022-09-04T20:05:32.874Z,98676.22
2022-09-04T20:08:02.435Z,98682.25
2022-09-04T20:10:32.885Z,98677.44
2022-09-04T20:13:02.083Z,98678.25
2022-09-04T20:15:32.012Z,98684.28
2022-09-04T20:18:04.144Z,98678.66
2022-09-04T20:20:46.114Z,98678.25
2022-09-04T20:23:35.793Z,98683.06
2022-09-04T20:26:02.130Z,98678.25
2022-09-04T20:28:48.434Z,98677.03
2022-09-04T20:31:35.881Z,98683.84
2022-09-04T20:34:09.949Z,98683.84
2022-09-04T20:36:37.428Z,98685.44
2022-09-04T20:39:33.468Z,98685.84
2022-09-04T20:42:10.045Z,98685.78
2022-09-04T20:44:36.704Z,98681.34
2022-09-04T20:52:40.454Z,98686.56
2022-09-04T20:52:59.378Z,98691.78
2022-09-04T20:53:34.875Z,98698.22
2022-09-04T20:56:36.110Z,98684.56
2022-09-04T21:03:05.579Z,98693.81
2022-09-04T21:03:23.713Z,98690.66
2022-09-04T21:04:48.609Z,98693.81
2022-09-04T21:07:27.134Z,98697.44
2022-09-04T21:09:55.477Z,98703.91
2022-09-04T21:12:27.850Z,98701.44
2022-09-04T21:14:55.146Z,98691.00
2022-09-04T21:17:34.643Z,98707.41
2022-09-04T21:20:16.666Z,98704.22
2022-09-04T21:22:48.529Z,98698.56
2022-09-04T21:25:21.176Z,98709.06
2022-09-04T21:27:57.961Z,98701.78
2022-09-04T21:30:37.481Z,98709.03
2022-09-04T21:33:28.887Z,98708.66
2022-09-04T21:36:11.725Z,98705.03
2022-09-04T21:38:54.069Z,98703.00
2022-09-04T21:41:26.971Z,98709.47
2022-09-04T21:43:53.261Z,98708.19
2022-09-04T21:46:36.053Z,98715.03
2022-09-04T21:49:26.492Z,98713.41
2022-09-04T21:52:02.598Z,98717.84
2022-09-04T21:54:37.841Z,98721.78
2022-09-04T22:02:29.225Z,98721.44
2022-09-04T22:02:41.326Z,98728.63
2022-09-04T22:03:02.463Z,98721.84
2022-09-04T22:05:35.859Z,98725.44
2022-09-04T22:13:31.082Z,98727.88
2022-09-04T22:13:38.066Z,98725.44
2022-09-04T22:14:17.303Z,98724.25
2022-09-04T22:16:52.773Z,98717.91
2022-09-04T22:19:26.674Z,98731.09
2022-09-04T22:22:03.686Z,98728.28
2022-09-04T22:24:33.379Z,98722.66
2022-09-04T22:27:08.811Z,98725.41
2022-09-04T22:29:40.517Z,98725.00
2022-09-04T22:32:10.105Z,98719.41
2022-09-04T22:34:52.512Z,98723.41
2022-09-04T22:37:37.657Z,98724.66
2022-09-04T22:40:27.439Z,98723.06
2022-09-04T22:43:02.923Z,98729.91
2022-09-04T22:45:32.320Z,98725.09
2022-09-04T22:48:10.750Z,98723.09
2022-09-04T22:50:50.354Z,98728.31
2022-09-04T22:53:27.820Z,98725.09
2022-09-04T22:56:23.397Z,98723.88
2022-09-04T22:59:20.380Z,98721.91
2022-09-04T23:02:14.179Z,98724.34
2022-09-04T23:04:59.111Z,98726.31
2022-09-04T23:09:03.111Z,98720.72
2022-09-04T23:13:49.990Z,98727.56
2022-09-04T23:13:52.086Z,98727.13
2022-09-04T23:16:12.650Z,98725.09
2022-09-04T23:22:09.964Z,98730.69
2022-09-04T23:26:33.321Z,98721.44
2022-09-04T23:26:43.386Z,98731.34
2022-09-04T23:27:43.734Z,98726.56
2022-09-04T23:30:13.472Z,98721.69
2022-09-04T23:32:58.776Z,98720.91
2022-09-04T23:35:42.055Z,98724.56
2022-09-04T23:38:26.596Z,98730.22
2022-09-04T23:41:13.880Z,98723.78
2022-09-04T23:43:49.702Z,98722.94
2022-09-04T23:46:17.937Z,98722.91
2022-09-04T23:48:44.283Z,98727.72
2022-09-04T23:51:13.719Z,98720.50
2022-09-04T23:53:43.146Z,98720.91
2022-09-04T23:56:09.449Z,98722.19
2022-09-04T23:58:54.513Z,98730.19
